sensor_id;sensor_type;location;lat;lon;timestamp;P1;durP1;ratioP1;P2;durP2;ratioP2
32734;SDS011;19112;51.076;3.706;2022-07-24T00:00:40;36.22;;;18.27;;
32734;SDS011;19112;51.076;3.706;2022-07-24T00:03:05;35.03;;;17.13;;
32734;SDS011;19112;51.076;3.706;2022-07-24T00:05:32;48.63;;;22.88;;
32734;SDS011;19112;51.076;3.706;2022-07-24T00:07:58;41.40;;;21.58;;
32734;SDS011;19112;51.076;3.706;2022-07-24T00:10:25;41.13;;;20.20;;
32734;SDS011;19112;51.076;3.706;2022-07-24T00:12:51;37.90;;;19.88;;
32734;SDS011;19112;51.076;3.706;2022-07-24T00:15:17;36.10;;;19.52;;
32734;SDS011;19112;51.076;3.706;2022-07-24T00:17:44;38.85;;;20.20;;
32734;SDS011;19112;51.076;3.706;2022-07-24T00:20:10;35.30;;;18.70;;
32734;SDS011;19112;51.076;3.706;2022-07-24T00:22:36;33.45;;;17.55;;
32734;SDS011;19112;51.076;3.706;2022-07-24T00:25:02;34.30;;;18.15;;
32734;SDS011;19112;51.076;3.706;2022-07-24T00:27:28;34.08;;;17.95;;
32734;SDS011;19112;51.076;3.706;2022-07-24T00:29:54;32.75;;;17.90;;
32734;SDS011;19112;51.076;3.706;2022-07-24T00:32:20;37.42;;;17.55;;
32734;SDS011;19112;51.076;3.706;2022-07-24T00:34:46;35.30;;;18.30;;
32734;SDS011;19112;51.076;3.706;2022-07-24T00:37:12;31.92;;;17.17;;
32734;SDS011;19112;51.076;3.706;2022-07-24T00:39:37;31.38;;;17.70;;
32734;SDS011;19112;51.076;3.706;2022-07-24T00:42:03;30.73;;;15.77;;
32734;SDS011;19112;51.076;3.706;2022-07-24T00:44:29;37.47;;;17.95;;
32734;SDS011;19112;51.076;3.706;2022-07-24T00:46:55;32.60;;;17.58;;
32734;SDS011;19112;51.076;3.706;2022-07-24T00:49:21;27.02;;;15.55;;
32734;SDS011;19112;51.076;3.706;2022-07-24T00:51:48;29.05;;;15.50;;
32734;SDS011;19112;51.076;3.706;2022-07-24T00:54:17;31.48;;;16.02;;
32734;SDS011;19112;51.076;3.706;2022-07-24T00:56:47;29.92;;;15.00;;
32734;SDS011;19112;51.076;3.706;2022-07-24T00:59:16;31.90;;;16.25;;
32734;SDS011;19112;51.076;3.706;2022-07-24T01:01:44;35.70;;;16.17;;
32734;SDS011;19112;51.076;3.706;2022-07-24T01:04:11;29.55;;;14.13;;
32734;SDS011;19112;51.076;3.706;2022-07-24T01:06:39;29.80;;;14.88;;
32734;SDS011;19112;51.076;3.706;2022-07-24T01:09:10;26.67;;;14.05;;
32734;SDS011;19112;51.076;3.706;2022-07-24T01:11:37;31.58;;;14.95;;
32734;SDS011;19112;51.076;3.706;2022-07-24T01:14:04;25.60;;;13.07;;
32734;SDS011;19112;51.076;3.706;2022-07-24T01:16:32;27.23;;;13.77;;
32734;SDS011;19112;51.076;3.706;2022-07-24T01:18:59;27.60;;;13.77;;
32734;SDS011;19112;51.076;3.706;2022-07-24T01:21:25;26.20;;;12.45;;
32734;SDS011;19112;51.076;3.706;2022-07-24T01:23:51;28.30;;;14.25;;
32734;SDS011;19112;51.076;3.706;2022-07-24T01:26:16;28.40;;;13.70;;
32734;SDS011;19112;51.076;3.706;2022-07-24T01:28:42;26.00;;;12.65;;
32734;SDS011;19112;51.076;3.706;2022-07-24T01:31:08;27.55;;;12.82;;
32734;SDS011;19112;51.076;3.706;2022-07-24T01:33:35;25.42;;;12.90;;
32734;SDS011;19112;51.076;3.706;2022-07-24T01:36:01;28.65;;;13.48;;
32734;SDS011;19112;51.076;3.706;2022-07-24T01:38:27;24.05;;;11.63;;
32734;SDS011;19112;51.076;3.706;2022-07-24T01:40:53;26.10;;;11.73;;
32734;SDS011;19112;51.076;3.706;2022-07-24T01:43:19;25.13;;;11.95;;
32734;SDS011;19112;51.076;3.706;2022-07-24T01:45:45;27.25;;;11.77;;
32734;SDS011;19112;51.076;3.706;2022-07-24T01:48:11;27.17;;;12.63;;
32734;SDS011;19112;51.076;3.706;2022-07-24T01:50:36;28.95;;;12.57;;
32734;SDS011;19112;51.076;3.706;2022-07-24T01:53:02;25.00;;;11.80;;
32734;SDS011;19112;51.076;3.706;2022-07-24T01:55:29;25.40;;;12.45;;
32734;SDS011;19112;51.076;3.706;2022-07-24T01:57:55;26.67;;;13.23;;
32734;SDS011;19112;51.076;3.706;2022-07-24T02:00:21;30.27;;;13.55;;
32734;SDS011;19112;51.076;3.706;2022-07-24T02:02:47;28.63;;;13.65;;
32734;SDS011;19112;51.076;3.706;2022-07-24T02:05:13;31.98;;;14.02;;
32734;SDS011;19112;51.076;3.706;2022-07-24T02:07:40;29.05;;;13.32;;
32734;SDS011;19112;51.076;3.706;2022-07-24T02:10:08;27.63;;;14.13;;
32734;SDS011;19112;51.076;3.706;2022-07-24T02:12:35;30.08;;;14.13;;
32734;SDS011;19112;51.076;3.706;2022-07-24T02:15:02;28.63;;;13.95;;
32734;SDS011;19112;51.076;3.706;2022-07-24T02:17:28;29.13;;;14.45;;
32734;SDS011;19112;51.076;3.706;2022-07-24T02:19:54;30.40;;;14.10;;
32734;SDS011;19112;51.076;3.706;2022-07-24T02:22:20;31.02;;;14.65;;
32734;SDS011;19112;51.076;3.706;2022-07-24T02:24:46;28.67;;;14.63;;
32734;SDS011;19112;51.076;3.706;2022-07-24T02:27:12;27.15;;;13.65;;
32734;SDS011;19112;51.076;3.706;2022-07-24T02:29:38;32.88;;;15.05;;
32734;SDS011;19112;51.076;3.706;2022-07-24T02:32:04;27.48;;;13.63;;
32734;SDS011;19112;51.076;3.706;2022-07-24T02:34:32;28.15;;;13.88;;
32734;SDS011;19112;51.076;3.706;2022-07-24T02:36:57;29.58;;;14.20;;
32734;SDS011;19112;51.076;3.706;2022-07-24T02:39:23;27.02;;;13.13;;
32734;SDS011;19112;51.076;3.706;2022-07-24T02:41:49;28.45;;;13.40;;
32734;SDS011;19112;51.076;3.706;2022-07-24T02:44:15;26.15;;;13.50;;
32734;SDS011;19112;51.076;3.706;2022-07-24T02:46:41;28.38;;;13.88;;
32734;SDS011;19112;51.076;3.706;2022-07-24T02:49:07;24.92;;;13.43;;
32734;SDS011;19112;51.076;3.706;2022-07-24T02:51:32;27.13;;;12.73;;
32734;SDS011;19112;51.076;3.706;2022-07-24T02:53:58;28.35;;;13.63;;
32734;SDS011;19112;51.076;3.706;2022-07-24T02:56:24;28.25;;;13.43;;
32734;SDS011;19112;51.076;3.706;2022-07-24T02:58:50;28.58;;;13.05;;
32734;SDS011;19112;51.076;3.706;2022-07-24T03:01:15;31.05;;;14.02;;
32734;SDS011;19112;51.076;3.706;2022-07-24T03:03:41;25.65;;;12.50;;
32734;SDS011;19112;51.076;3.706;2022-07-24T03:06:07;26.00;;;12.88;;
32734;SDS011;19112;51.076;3.706;2022-07-24T03:08:33;27.02;;;12.20;;
32734;SDS011;19112;51.076;3.706;2022-07-24T03:10:59;27.98;;;14.18;;
32734;SDS011;19112;51.076;3.706;2022-07-24T03:13:24;27.50;;;12.77;;
32734;SDS011;19112;51.076;3.706;2022-07-24T03:15:50;25.40;;;12.02;;
32734;SDS011;19112;51.076;3.706;2022-07-24T03:18:16;24.23;;;11.63;;
32734;SDS011;19112;51.076;3.706;2022-07-24T03:20:42;24.92;;;11.55;;
32734;SDS011;19112;51.076;3.706;2022-07-24T03:23:07;25.48;;;11.45;;
32734;SDS011;19112;51.076;3.706;2022-07-24T03:25:33;25.33;;;11.88;;
32734;SDS011;19112;51.076;3.706;2022-07-24T03:27:59;27.58;;;11.82;;
32734;SDS011;19112;51.076;3.706;2022-07-24T03:30:25;28.08;;;13.20;;
32734;SDS011;19112;51.076;3.706;2022-07-24T03:32:50;26.60;;;13.23;;
32734;SDS011;19112;51.076;3.706;2022-07-24T03:35:16;24.23;;;11.02;;
32734;SDS011;19112;51.076;3.706;2022-07-24T03:37:42;24.88;;;11.88;;
32734;SDS011;19112;51.076;3.706;2022-07-24T03:40:08;27.67;;;13.05;;
32734;SDS011;19112;51.076;3.706;2022-07-24T03:42:34;21.85;;;10.85;;
32734;SDS011;19112;51.076;3.706;2022-07-24T03:45:00;24.63;;;10.75;;
32734;SDS011;19112;51.076;3.706;2022-07-24T03:47:27;23.58;;;10.55;;
32734;SDS011;19112;51.076;3.706;2022-07-24T03:49:53;24.73;;;11.23;;
32734;SDS011;19112;51.076;3.706;2022-07-24T03:52:19;25.55;;;10.20;;
32734;SDS011;19112;51.076;3.706;2022-07-24T03:54:45;24.98;;;10.38;;
32734;SDS011;19112;51.076;3.706;2022-07-24T03:57:10;22.95;;;10.77;;
32734;SDS011;19112;51.076;3.706;2022-07-24T03:59:36;24.13;;;10.90;;
32734;SDS011;19112;51.076;3.706;2022-07-24T04:02:02;22.67;;;10.80;;
32734;SDS011;19112;51.076;3.706;2022-07-24T04:04:28;24.00;;;11.00;;
32734;SDS011;19112;51.076;3.706;2022-07-24T04:06:53;23.63;;;9.50;;
32734;SDS011;19112;51.076;3.706;2022-07-24T04:09:19;21.88;;;9.18;;
32734;SDS011;19112;51.076;3.706;2022-07-24T04:11:45;20.98;;;9.38;;
32734;SDS011;19112;51.076;3.706;2022-07-24T04:14:12;24.98;;;8.95;;
32734;SDS011;19112;51.076;3.706;2022-07-24T04:16:38;22.67;;;9.95;;
32734;SDS011;19112;51.076;3.706;2022-07-24T04:19:03;18.73;;;8.68;;
32734;SDS011;19112;51.076;3.706;2022-07-24T04:21:29;23.27;;;9.80;;
32734;SDS011;19112;51.076;3.706;2022-07-24T04:23:55;23.23;;;9.38;;
32734;SDS011;19112;51.076;3.706;2022-07-24T04:26:22;20.67;;;8.82;;
32734;SDS011;19112;51.076;3.706;2022-07-24T04:28:48;19.95;;;8.48;;
32734;SDS011;19112;51.076;3.706;2022-07-24T04:31:14;19.73;;;9.30;;
32734;SDS011;19112;51.076;3.706;2022-07-24T04:33:40;20.92;;;8.65;;
32734;SDS011;19112;51.076;3.706;2022-07-24T04:36:05;19.52;;;9.10;;
32734;SDS011;19112;51.076;3.706;2022-07-24T04:38:33;23.30;;;10.00;;
32734;SDS011;19112;51.076;3.706;2022-07-24T04:40:59;22.42;;;8.85;;
32734;SDS011;19112;51.076;3.706;2022-07-24T04:43:26;25.42;;;9.40;;
32734;SDS011;19112;51.076;3.706;2022-07-24T04:45:52;22.33;;;9.32;;
32734;SDS011;19112;51.076;3.706;2022-07-24T04:48:18;22.67;;;9.77;;
32734;SDS011;19112;51.076;3.706;2022-07-24T04:50:44;21.45;;;9.77;;
32734;SDS011;19112;51.076;3.706;2022-07-24T04:53:09;19.27;;;9.32;;
32734;SDS011;19112;51.076;3.706;2022-07-24T04:55:35;23.65;;;10.07;;
32734;SDS011;19112;51.076;3.706;2022-07-24T04:58:01;20.67;;;8.73;;
32734;SDS011;19112;51.076;3.706;2022-07-24T05:00:27;22.77;;;9.38;;
32734;SDS011;19112;51.076;3.706;2022-07-24T05:02:53;20.88;;;9.07;;
32734;SDS011;19112;51.076;3.706;2022-07-24T05:05:19;25.02;;;9.48;;
32734;SDS011;19112;51.076;3.706;2022-07-24T05:07:45;21.20;;;9.48;;
32734;SDS011;19112;51.076;3.706;2022-07-24T05:10:10;20.88;;;9.75;;
32734;SDS011;19112;51.076;3.706;2022-07-24T05:12:36;18.15;;;8.80;;
32734;SDS011;19112;51.076;3.706;2022-07-24T05:15:03;22.85;;;9.65;;
32734;SDS011;19112;51.076;3.706;2022-07-24T05:17:30;23.60;;;9.60;;
32734;SDS011;19112;51.076;3.706;2022-07-24T05:19:56;22.58;;;9.25;;
32734;SDS011;19112;51.076;3.706;2022-07-24T05:22:21;21.27;;;9.52;;
32734;SDS011;19112;51.076;3.706;2022-07-24T05:24:47;21.20;;;8.80;;
32734;SDS011;19112;51.076;3.706;2022-07-24T05:27:14;21.40;;;9.38;;
32734;SDS011;19112;51.076;3.706;2022-07-24T05:29:40;19.88;;;8.48;;
32734;SDS011;19112;51.076;3.706;2022-07-24T05:32:06;20.40;;;8.88;;
32734;SDS011;19112;51.076;3.706;2022-07-24T05:34:32;19.17;;;8.40;;
32734;SDS011;19112;51.076;3.706;2022-07-24T05:36:58;19.48;;;8.75;;
32734;SDS011;19112;51.076;3.706;2022-07-24T05:39:23;20.48;;;8.43;;
32734;SDS011;19112;51.076;3.706;2022-07-24T05:41:50;18.48;;;8.07;;
32734;SDS011;19112;51.076;3.706;2022-07-24T05:44:16;23.42;;;9.07;;
32734;SDS011;19112;51.076;3.706;2022-07-24T05:46:42;19.38;;;8.68;;
32734;SDS011;19112;51.076;3.706;2022-07-24T05:49:07;19.13;;;8.05;;
32734;SDS011;19112;51.076;3.706;2022-07-24T05:51:33;19.55;;;9.43;;
32734;SDS011;19112;51.076;3.706;2022-07-24T05:53:59;19.17;;;8.13;;
32734;SDS011;19112;51.076;3.706;2022-07-24T05:56:26;21.15;;;8.40;;
32734;SDS011;19112;51.076;3.706;2022-07-24T05:58:52;21.38;;;8.25;;
32734;SDS011;19112;51.076;3.706;2022-07-24T06:01:18;17.48;;;7.35;;
32734;SDS011;19112;51.076;3.706;2022-07-24T06:03:44;21.55;;;7.85;;
32734;SDS011;19112;51.076;3.706;2022-07-24T06:06:10;16.85;;;7.00;;
32734;SDS011;19112;51.076;3.706;2022-07-24T06:08:35;15.43;;;6.68;;
32734;SDS011;19112;51.076;3.706;2022-07-24T06:11:01;17.75;;;6.45;;
32734;SDS011;19112;51.076;3.706;2022-07-24T06:13:27;17.77;;;6.88;;
32734;SDS011;19112;51.076;3.706;2022-07-24T06:15:53;14.07;;;6.45;;
32734;SDS011;19112;51.076;3.706;2022-07-24T06:18:19;17.55;;;6.65;;
32734;SDS011;19112;51.076;3.706;2022-07-24T06:20:44;14.85;;;5.85;;
32734;SDS011;19112;51.076;3.706;2022-07-24T06:23:10;13.88;;;6.20;;
32734;SDS011;19112;51.076;3.706;2022-07-24T06:25:36;15.13;;;5.97;;
32734;SDS011;19112;51.076;3.706;2022-07-24T06:28:02;12.60;;;5.55;;
32734;SDS011;19112;51.076;3.706;2022-07-24T06:30:28;13.75;;;6.03;;
32734;SDS011;19112;51.076;3.706;2022-07-24T06:32:55;13.98;;;6.03;;
32734;SDS011;19112;51.076;3.706;2022-07-24T06:35:23;13.63;;;5.22;;
32734;SDS011;19112;51.076;3.706;2022-07-24T06:37:50;17.02;;;6.65;;
32734;SDS011;19112;51.076;3.706;2022-07-24T06:40:16;16.63;;;6.15;;
32734;SDS011;19112;51.076;3.706;2022-07-24T06:42:44;14.52;;;5.25;;
32734;SDS011;19112;51.076;3.706;2022-07-24T06:45:11;14.43;;;5.47;;
32734;SDS011;19112;51.076;3.706;2022-07-24T06:47:38;12.25;;;5.05;;
32734;SDS011;19112;51.076;3.706;2022-07-24T06:50:05;11.88;;;5.30;;
32734;SDS011;19112;51.076;3.706;2022-07-24T06:52:31;13.32;;;5.28;;
32734;SDS011;19112;51.076;3.706;2022-07-24T06:54:57;12.20;;;4.72;;
32734;SDS011;19112;51.076;3.706;2022-07-24T06:57:23;13.90;;;4.93;;
32734;SDS011;19112;51.076;3.706;2022-07-24T06:59:52;10.32;;;4.65;;
32734;SDS011;19112;51.076;3.706;2022-07-24T07:02:19;12.32;;;5.30;;
32734;SDS011;19112;51.076;3.706;2022-07-24T07:04:45;14.60;;;5.00;;
32734;SDS011;19112;51.076;3.706;2022-07-24T07:07:12;12.32;;;5.07;;
32734;SDS011;19112;51.076;3.706;2022-07-24T07:09:39;11.85;;;5.00;;
32734;SDS011;19112;51.076;3.706;2022-07-24T07:12:05;16.70;;;5.20;;
32734;SDS011;19112;51.076;3.706;2022-07-24T07:14:31;13.60;;;4.70;;
32734;SDS011;19112;51.076;3.706;2022-07-24T07:16:57;12.35;;;4.70;;
32734;SDS011;19112;51.076;3.706;2022-07-24T07:19:23;14.98;;;4.63;;
32734;SDS011;19112;51.076;3.706;2022-07-24T07:21:49;16.17;;;5.47;;
32734;SDS011;19112;51.076;3.706;2022-07-24T07:24:15;15.27;;;5.03;;
32734;SDS011;19112;51.076;3.706;2022-07-24T07:26:41;10.15;;;4.55;;
32734;SDS011;19112;51.076;3.706;2022-07-24T07:29:07;12.48;;;4.30;;
32734;SDS011;19112;51.076;3.706;2022-07-24T07:31:33;15.55;;;5.28;;
32734;SDS011;19112;51.076;3.706;2022-07-24T07:33:59;12.38;;;4.15;;
32734;SDS011;19112;51.076;3.706;2022-07-24T07:36:25;12.88;;;3.97;;
32734;SDS011;19112;51.076;3.706;2022-07-24T07:38:51;10.57;;;4.28;;
32734;SDS011;19112;51.076;3.706;2022-07-24T07:41:17;10.27;;;3.97;;
32734;SDS011;19112;51.076;3.706;2022-07-24T07:43:44;10.38;;;4.50;;
32734;SDS011;19112;51.076;3.706;2022-07-24T07:46:12;10.27;;;4.10;;
32734;SDS011;19112;51.076;3.706;2022-07-24T07:48:39;7.85;;;3.50;;
32734;SDS011;19112;51.076;3.706;2022-07-24T07:51:05;8.98;;;3.75;;
32734;SDS011;19112;51.076;3.706;2022-07-24T07:53:31;6.03;;;2.83;;
32734;SDS011;19112;51.076;3.706;2022-07-24T07:55:57;7.03;;;3.70;;
32734;SDS011;19112;51.076;3.706;2022-07-24T07:58:23;9.57;;;3.30;;
32734;SDS011;19112;51.076;3.706;2022-07-24T08:00:51;6.82;;;2.67;;
32734;SDS011;19112;51.076;3.706;2022-07-24T08:03:17;8.27;;;3.20;;
32734;SDS011;19112;51.076;3.706;2022-07-24T08:05:43;8.77;;;3.35;;
32734;SDS011;19112;51.076;3.706;2022-07-24T08:08:09;6.90;;;2.80;;
32734;SDS011;19112;51.076;3.706;2022-07-24T08:10:34;9.40;;;3.08;;
32734;SDS011;19112;51.076;3.706;2022-07-24T08:13:00;8.73;;;3.40;;
32734;SDS011;19112;51.076;3.706;2022-07-24T08:15:26;8.55;;;3.47;;
32734;SDS011;19112;51.076;3.706;2022-07-24T08:17:53;8.18;;;3.40;;
32734;SDS011;19112;51.076;3.706;2022-07-24T08:20:22;9.23;;;3.15;;
32734;SDS011;19112;51.076;3.706;2022-07-24T08:22:49;9.35;;;3.03;;
32734;SDS011;19112;51.076;3.706;2022-07-24T08:25:15;8.68;;;3.17;;
32734;SDS011;19112;51.076;3.706;2022-07-24T08:27:41;9.15;;;3.60;;
32734;SDS011;19112;51.076;3.706;2022-07-24T08:30:08;8.50;;;3.00;;
32734;SDS011;19112;51.076;3.706;2022-07-24T08:32:35;6.97;;;3.10;;
32734;SDS011;19112;51.076;3.706;2022-07-24T08:35:03;5.38;;;3.00;;
32734;SDS011;19112;51.076;3.706;2022-07-24T08:37:34;8.13;;;3.35;;
32734;SDS011;19112;51.076;3.706;2022-07-24T08:40:05;8.48;;;3.38;;
32734;SDS011;19112;51.076;3.706;2022-07-24T08:42:34;5.65;;;3.20;;
32734;SDS011;19112;51.076;3.706;2022-07-24T08:45:02;7.20;;;3.28;;
32734;SDS011;19112;51.076;3.706;2022-07-24T08:47:33;11.20;;;3.38;;
32734;SDS011;19112;51.076;3.706;2022-07-24T08:49:59;7.25;;;3.20;;
32734;SDS011;19112;51.076;3.706;2022-07-24T08:52:29;7.88;;;3.20;;
32734;SDS011;19112;51.076;3.706;2022-07-24T08:54:54;7.25;;;3.28;;
32734;SDS011;19112;51.076;3.706;2022-07-24T08:57:21;6.10;;;3.25;;
32734;SDS011;19112;51.076;3.706;2022-07-24T08:59:47;8.60;;;3.72;;
32734;SDS011;19112;51.076;3.706;2022-07-24T09:02:13;5.90;;;3.60;;
32734;SDS011;19112;51.076;3.706;2022-07-24T09:04:40;7.10;;;3.40;;
32734;SDS011;19112;51.076;3.706;2022-07-24T09:07:09;6.93;;;3.35;;
32734;SDS011;19112;51.076;3.706;2022-07-24T09:09:44;7.32;;;3.50;;
32734;SDS011;19112;51.076;3.706;2022-07-24T09:12:22;7.78;;;3.80;;
32734;SDS011;19112;51.076;3.706;2022-07-24T09:14:48;9.63;;;3.80;;
32734;SDS011;19112;51.076;3.706;2022-07-24T09:17:15;10.75;;;3.75;;
32734;SDS011;19112;51.076;3.706;2022-07-24T09:19:53;8.75;;;3.72;;
32734;SDS011;19112;51.076;3.706;2022-07-24T09:25:14;6.20;;;3.30;;
32734;SDS011;19112;51.076;3.706;2022-07-24T09:27:54;8.48;;;3.53;;
32734;SDS011;19112;51.076;3.706;2022-07-24T09:33:01;10.57;;;3.63;;
32734;SDS011;19112;51.076;3.706;2022-07-24T09:35:33;10.30;;;3.50;;
32734;SDS011;19112;51.076;3.706;2022-07-24T09:38:04;8.40;;;3.53;;
32734;SDS011;19112;51.076;3.706;2022-07-24T09:40:44;9.18;;;3.53;;
32734;SDS011;19112;51.076;3.706;2022-07-24T09:45:54;11.15;;;3.72;;
32734;SDS011;19112;51.076;3.706;2022-07-24T09:48:27;9.07;;;3.55;;
32734;SDS011;19112;51.076;3.706;2022-07-24T09:53:25;11.77;;;4.10;;
32734;SDS011;19112;51.076;3.706;2022-07-24T09:58:26;10.50;;;4.20;;
32734;SDS011;19112;51.076;3.706;2022-07-24T10:00:54;9.55;;;3.85;;
32734;SDS011;19112;51.076;3.706;2022-07-24T10:03:25;12.23;;;4.15;;
32734;SDS011;19112;51.076;3.706;2022-07-24T10:05:57;7.93;;;3.60;;
32734;SDS011;19112;51.076;3.706;2022-07-24T10:08:26;9.98;;;3.40;;
32734;SDS011;19112;51.076;3.706;2022-07-24T10:10:53;7.15;;;3.75;;
32734;SDS011;19112;51.076;3.706;2022-07-24T10:13:20;10.00;;;3.63;;
32734;SDS011;19112;51.076;3.706;2022-07-24T10:15:54;9.02;;;3.60;;
32734;SDS011;19112;51.076;3.706;2022-07-24T10:21:35;8.03;;;3.53;;
32734;SDS011;19112;51.076;3.706;2022-07-24T10:26:41;9.63;;;4.15;;
32734;SDS011;19112;51.076;3.706;2022-07-24T10:29:22;9.75;;;3.95;;
32734;SDS011;19112;51.076;3.706;2022-07-24T10:31:50;11.57;;;4.13;;
32734;SDS011;19112;51.076;3.706;2022-07-24T10:37:13;11.43;;;4.20;;
32734;SDS011;19112;51.076;3.706;2022-07-24T10:45:31;10.32;;;3.78;;
32734;SDS011;19112;51.076;3.706;2022-07-24T10:47:58;14.10;;;4.53;;
32734;SDS011;19112;51.076;3.706;2022-07-24T10:53:24;13.05;;;4.60;;
32734;SDS011;19112;51.076;3.706;2022-07-24T10:59:05;10.63;;;4.18;;
32734;SDS011;19112;51.076;3.706;2022-07-24T11:01:37;9.70;;;3.90;;
32734;SDS011;19112;51.076;3.706;2022-07-24T11:06:48;6.75;;;3.50;;
32734;SDS011;19112;51.076;3.706;2022-07-24T11:09:53;9.80;;;3.80;;
32734;SDS011;19112;51.076;3.706;2022-07-24T11:12:28;9.80;;;4.07;;
32734;SDS011;19112;51.076;3.706;2022-07-24T11:14:58;8.38;;;3.65;;
32734;SDS011;19112;51.076;3.706;2022-07-24T11:17:46;9.07;;;4.07;;
32734;SDS011;19112;51.076;3.706;2022-07-24T11:20:22;10.45;;;4.15;;
32734;SDS011;19112;51.076;3.706;2022-07-24T11:22:52;12.95;;;4.03;;
32734;SDS011;19112;51.076;3.706;2022-07-24T11:25:24;9.07;;;3.97;;
32734;SDS011;19112;51.076;3.706;2022-07-24T11:27:56;11.05;;;3.78;;
32734;SDS011;19112;51.076;3.706;2022-07-24T11:30:40;9.52;;;4.30;;
32734;SDS011;19112;51.076;3.706;2022-07-24T11:33:11;10.02;;;3.95;;
32734;SDS011;19112;51.076;3.706;2022-07-24T11:35:44;8.68;;;3.92;;
32734;SDS011;19112;51.076;3.706;2022-07-24T11:38:10;10.95;;;4.00;;
32734;SDS011;19112;51.076;3.706;2022-07-24T11:40:37;9.10;;;3.80;;
32734;SDS011;19112;51.076;3.706;2022-07-24T11:43:04;9.60;;;4.03;;
32734;SDS011;19112;51.076;3.706;2022-07-24T11:45:31;9.27;;;4.40;;
32734;SDS011;19112;51.076;3.706;2022-07-24T11:47:57;9.68;;;4.10;;
32734;SDS011;19112;51.076;3.706;2022-07-24T11:50:24;7.45;;;4.00;;
32734;SDS011;19112;51.076;3.706;2022-07-24T11:52:51;9.38;;;4.25;;
32734;SDS011;19112;51.076;3.706;2022-07-24T11:55:19;8.60;;;4.05;;
32734;SDS011;19112;51.076;3.706;2022-07-24T11:57:51;13.10;;;3.70;;
32734;SDS011;19112;51.076;3.706;2022-07-24T12:00:22;8.30;;;3.97;;
32734;SDS011;19112;51.076;3.706;2022-07-24T12:02:52;9.82;;;3.95;;
32734;SDS011;19112;51.076;3.706;2022-07-24T12:05:25;6.53;;;3.87;;
32734;SDS011;19112;51.076;3.706;2022-07-24T12:07:52;9.20;;;4.05;;
32734;SDS011;19112;51.076;3.706;2022-07-24T12:10:21;9.27;;;4.28;;
32734;SDS011;19112;51.076;3.706;2022-07-24T12:12:49;10.25;;;4.25;;
32734;SDS011;19112;51.076;3.706;2022-07-24T12:15:18;7.28;;;3.72;;
32734;SDS011;19112;51.076;3.706;2022-07-24T12:17:52;11.70;;;4.15;;
32734;SDS011;19112;51.076;3.706;2022-07-24T12:20:21;13.90;;;4.40;;
32734;SDS011;19112;51.076;3.706;2022-07-24T12:22:49;8.73;;;4.22;;
32734;SDS011;19112;51.076;3.706;2022-07-24T12:25:16;8.30;;;4.07;;
32734;SDS011;19112;51.076;3.706;2022-07-24T12:27:43;8.73;;;4.00;;
32734;SDS011;19112;51.076;3.706;2022-07-24T12:30:21;8.40;;;4.20;;
32734;SDS011;19112;51.076;3.706;2022-07-24T12:32:54;8.52;;;4.00;;
32734;SDS011;19112;51.076;3.706;2022-07-24T12:38:35;10.02;;;3.70;;
32734;SDS011;19112;51.076;3.706;2022-07-24T12:41:11;10.23;;;4.13;;
32734;SDS011;19112;51.076;3.706;2022-07-24T12:43:47;9.07;;;4.13;;
32734;SDS011;19112;51.076;3.706;2022-07-24T12:46:28;8.55;;;4.25;;
32734;SDS011;19112;51.076;3.706;2022-07-24T12:49:05;9.02;;;3.95;;
32734;SDS011;19112;51.076;3.706;2022-07-24T12:51:46;9.50;;;4.00;;
32734;SDS011;19112;51.076;3.706;2022-07-24T12:56:45;10.93;;;4.03;;
32734;SDS011;19112;51.076;3.706;2022-07-24T13:01:55;9.60;;;4.43;;
32734;SDS011;19112;51.076;3.706;2022-07-24T13:04:42;9.75;;;4.30;;
32734;SDS011;19112;51.076;3.706;2022-07-24T13:07:09;9.90;;;4.40;;
32734;SDS011;19112;51.076;3.706;2022-07-24T13:09:37;7.95;;;4.03;;
32734;SDS011;19112;51.076;3.706;2022-07-24T13:12:02;10.95;;;4.10;;
32734;SDS011;19112;51.076;3.706;2022-07-24T13:14:31;11.32;;;4.15;;
32734;SDS011;19112;51.076;3.706;2022-07-24T13:17:01;10.65;;;3.97;;
32734;SDS011;19112;51.076;3.706;2022-07-24T13:19:36;7.38;;;4.07;;
32734;SDS011;19112;51.076;3.706;2022-07-24T13:22:05;15.27;;;4.90;;
32734;SDS011;19112;51.076;3.706;2022-07-24T13:24:31;7.30;;;4.00;;
32734;SDS011;19112;51.076;3.706;2022-07-24T13:27:01;10.63;;;4.55;;
32734;SDS011;19112;51.076;3.706;2022-07-24T13:29:28;10.95;;;4.60;;
32734;SDS011;19112;51.076;3.706;2022-07-24T13:31:54;8.90;;;4.35;;
32734;SDS011;19112;51.076;3.706;2022-07-24T13:34:20;11.98;;;4.53;;
32734;SDS011;19112;51.076;3.706;2022-07-24T13:36:46;9.75;;;4.82;;
32734;SDS011;19112;51.076;3.706;2022-07-24T13:39:13;8.82;;;4.13;;
32734;SDS011;19112;51.076;3.706;2022-07-24T13:41:39;8.70;;;3.80;;
32734;SDS011;19112;51.076;3.706;2022-07-24T13:44:05;9.38;;;4.40;;
32734;SDS011;19112;51.076;3.706;2022-07-24T13:46:33;10.38;;;4.82;;
32734;SDS011;19112;51.076;3.706;2022-07-24T13:49:00;8.23;;;4.00;;
32734;SDS011;19112;51.076;3.706;2022-07-24T13:51:28;9.82;;;4.63;;
32734;SDS011;19112;51.076;3.706;2022-07-24T13:53:53;9.63;;;4.10;;
32734;SDS011;19112;51.076;3.706;2022-07-24T13:56:20;11.23;;;4.00;;
32734;SDS011;19112;51.076;3.706;2022-07-24T13:58:47;10.88;;;4.07;;
32734;SDS011;19112;51.076;3.706;2022-07-24T14:01:14;8.77;;;4.22;;
32734;SDS011;19112;51.076;3.706;2022-07-24T14:03:42;14.90;;;4.30;;
32734;SDS011;19112;51.076;3.706;2022-07-24T14:06:09;9.15;;;4.10;;
32734;SDS011;19112;51.076;3.706;2022-07-24T14:08:36;8.68;;;4.53;;
32734;SDS011;19112;51.076;3.706;2022-07-24T14:11:04;10.43;;;4.60;;
32734;SDS011;19112;51.076;3.706;2022-07-24T14:13:30;12.77;;;5.00;;
32734;SDS011;19112;51.076;3.706;2022-07-24T14:15:56;10.27;;;4.57;;
32734;SDS011;19112;51.076;3.706;2022-07-24T14:18:22;10.95;;;4.68;;
32734;SDS011;19112;51.076;3.706;2022-07-24T14:20:48;8.93;;;4.82;;
32734;SDS011;19112;51.076;3.706;2022-07-24T14:23:13;9.77;;;4.47;;
32734;SDS011;19112;51.076;3.706;2022-07-24T14:25:39;8.27;;;4.40;;
32734;SDS011;19112;51.076;3.706;2022-07-24T14:28:05;12.30;;;4.72;;
32734;SDS011;19112;51.076;3.706;2022-07-24T14:30:31;11.07;;;4.70;;
32734;SDS011;19112;51.076;3.706;2022-07-24T14:32:57;8.38;;;4.13;;
32734;SDS011;19112;51.076;3.706;2022-07-24T14:35:23;10.85;;;4.60;;
32734;SDS011;19112;51.076;3.706;2022-07-24T14:37:49;10.15;;;4.57;;
32734;SDS011;19112;51.076;3.706;2022-07-24T14:40:15;11.52;;;4.70;;
32734;SDS011;19112;51.076;3.706;2022-07-24T14:42:41;8.30;;;4.30;;
32734;SDS011;19112;51.076;3.706;2022-07-24T14:45:07;8.82;;;4.63;;
32734;SDS011;19112;51.076;3.706;2022-07-24T14:47:33;9.52;;;4.40;;
32734;SDS011;19112;51.076;3.706;2022-07-24T14:50:00;10.55;;;4.50;;
32734;SDS011;19112;51.076;3.706;2022-07-24T14:52:25;8.52;;;4.32;;
32734;SDS011;19112;51.076;3.706;2022-07-24T14:54:51;9.88;;;4.18;;
32734;SDS011;19112;51.076;3.706;2022-07-24T14:57:17;8.05;;;4.43;;
32734;SDS011;19112;51.076;3.706;2022-07-24T14:59:43;11.40;;;4.30;;
32734;SDS011;19112;51.076;3.706;2022-07-24T15:02:09;9.20;;;4.35;;
32734;SDS011;19112;51.076;3.706;2022-07-24T15:04:36;8.35;;;3.92;;
32734;SDS011;19112;51.076;3.706;2022-07-24T15:07:02;10.48;;;4.65;;
32734;SDS011;19112;51.076;3.706;2022-07-24T15:09:28;9.68;;;4.28;;
32734;SDS011;19112;51.076;3.706;2022-07-24T15:11:54;7.40;;;4.22;;
32734;SDS011;19112;51.076;3.706;2022-07-24T15:14:20;10.63;;;4.60;;
32734;SDS011;19112;51.076;3.706;2022-07-24T15:16:46;11.25;;;4.20;;
32734;SDS011;19112;51.076;3.706;2022-07-24T15:19:12;10.85;;;3.97;;
32734;SDS011;19112;51.076;3.706;2022-07-24T15:21:38;8.43;;;3.90;;